Terminal Aerodrome Forecast
Issued by NWS Mobile, AL

Home | Current Version | Previous Version | Text Only | Print | Product List | Glossary On
Versions: 1 2 3 4 5 6 7 8 9 10 11 12 13 14 15 16 17 18 19 20 21 22 23 24 25 26 27 28 29 30 31 32 33 34
000
FTUS44 KMOB 241720
TAFMOB
TAF
KMOB 241720Z 2418/2518 30006KT 6SM BR VCSH SCT007 BKN040 BKN070
      TEMPO 2419/2423 VRB15G25KT 1SM +TSRA BKN030CB
     FM250100 26003KT P6SM SCT050 BKN100
     FM251500 29008KT P6SM VCTS SCT030CB BKN130=

USA.gov is the U.S. government's official web portal to all federal, state and local government web resources and services.